sensor_id;sensor_type;location;lat;lon;timestamp;P1;durP1;ratioP1;P2;durP2;ratioP2
20375;SDS011;10347;51.828;6.466;2022-11-15T00:00:05;10.23;;;7.32;;
20375;SDS011;10347;51.828;6.466;2022-11-15T00:02:32;9.60;;;7.07;;
20375;SDS011;10347;51.828;6.466;2022-11-15T00:04:57;9.57;;;7.25;;
20375;SDS011;10347;51.828;6.466;2022-11-15T00:07:23;10.65;;;7.82;;
20375;SDS011;10347;51.828;6.466;2022-11-15T00:09:48;9.80;;;7.05;;
20375;SDS011;10347;51.828;6.466;2022-11-15T00:12:14;11.93;;;7.50;;
20375;SDS011;10347;51.828;6.466;2022-11-15T00:14:39;10.38;;;7.20;;
20375;SDS011;10347;51.828;6.466;2022-11-15T00:17:05;12.52;;;7.93;;
20375;SDS011;10347;51.828;6.466;2022-11-15T00:19:30;8.93;;;7.05;;
20375;SDS011;10347;51.828;6.466;2022-11-15T00:21:56;9.85;;;7.07;;
20375;SDS011;10347;51.828;6.466;2022-11-15T00:24:21;9.80;;;7.00;;
20375;SDS011;10347;51.828;6.466;2022-11-15T00:26:47;9.43;;;7.10;;
20375;SDS011;10347;51.828;6.466;2022-11-15T00:29:13;12.45;;;8.35;;
20375;SDS011;10347;51.828;6.466;2022-11-15T00:31:38;11.48;;;7.70;;
20375;SDS011;10347;51.828;6.466;2022-11-15T00:34:04;11.48;;;8.13;;
20375;SDS011;10347;51.828;6.466;2022-11-15T00:36:32;11.80;;;8.02;;
20375;SDS011;10347;51.828;6.466;2022-11-15T00:38:59;14.43;;;9.00;;
20375;SDS011;10347;51.828;6.466;2022-11-15T00:41:25;11.52;;;8.27;;
20375;SDS011;10347;51.828;6.466;2022-11-15T00:43:50;10.63;;;8.05;;
20375;SDS011;10347;51.828;6.466;2022-11-15T00:46:16;12.50;;;7.60;;
20375;SDS011;10347;51.828;6.466;2022-11-15T00:48:41;11.95;;;7.93;;
20375;SDS011;10347;51.828;6.466;2022-11-15T00:51:07;11.70;;;7.68;;
20375;SDS011;10347;51.828;6.466;2022-11-15T00:53:32;12.02;;;8.43;;
20375;SDS011;10347;51.828;6.466;2022-11-15T00:55:58;10.75;;;8.05;;
20375;SDS011;10347;51.828;6.466;2022-11-15T00:58:24;11.85;;;8.23;;
20375;SDS011;10347;51.828;6.466;2022-11-15T01:00:49;12.75;;;8.30;;
20375;SDS011;10347;51.828;6.466;2022-11-15T01:03:15;11.80;;;7.90;;
20375;SDS011;10347;51.828;6.466;2022-11-15T01:05:41;13.55;;;8.48;;
20375;SDS011;10347;51.828;6.466;2022-11-15T01:08:10;15.68;;;8.27;;
20375;SDS011;10347;51.828;6.466;2022-11-15T01:10:41;11.15;;;8.27;;
20375;SDS011;10347;51.828;6.466;2022-11-15T01:13:07;16.30;;;8.50;;
20375;SDS011;10347;51.828;6.466;2022-11-15T01:15:33;10.45;;;7.43;;
20375;SDS011;10347;51.828;6.466;2022-11-15T01:17:58;12.02;;;8.05;;
20375;SDS011;10347;51.828;6.466;2022-11-15T01:20:24;9.90;;;7.03;;
20375;SDS011;10347;51.828;6.466;2022-11-15T01:22:49;13.52;;;8.45;;
20375;SDS011;10347;51.828;6.466;2022-11-15T01:25:15;12.15;;;7.95;;
20375;SDS011;10347;51.828;6.466;2022-11-15T01:27:40;10.25;;;7.60;;
20375;SDS011;10347;51.828;6.466;2022-11-15T01:30:06;10.48;;;7.40;;
20375;SDS011;10347;51.828;6.466;2022-11-15T01:32:33;10.80;;;7.43;;
20375;SDS011;10347;51.828;6.466;2022-11-15T01:34:58;11.93;;;7.47;;
20375;SDS011;10347;51.828;6.466;2022-11-15T01:37:24;11.27;;;7.45;;
20375;SDS011;10347;51.828;6.466;2022-11-15T01:39:49;10.30;;;6.95;;
20375;SDS011;10347;51.828;6.466;2022-11-15T01:42:15;10.13;;;6.85;;
20375;SDS011;10347;51.828;6.466;2022-11-15T01:44:46;9.43;;;7.00;;
20375;SDS011;10347;51.828;6.466;2022-11-15T01:49:54;10.32;;;7.25;;
20375;SDS011;10347;51.828;6.466;2022-11-15T01:52:25;9.52;;;7.55;;
20375;SDS011;10347;51.828;6.466;2022-11-15T01:54:55;10.52;;;7.57;;
20375;SDS011;10347;51.828;6.466;2022-11-15T01:57:42;13.18;;;8.32;;
20375;SDS011;10347;51.828;6.466;2022-11-15T02:00:10;9.27;;;7.43;;
20375;SDS011;10347;51.828;6.466;2022-11-15T02:02:36;9.55;;;6.80;;
20375;SDS011;10347;51.828;6.466;2022-11-15T02:05:03;10.80;;;7.25;;
20375;SDS011;10347;51.828;6.466;2022-11-15T02:07:29;9.13;;;6.95;;
20375;SDS011;10347;51.828;6.466;2022-11-15T02:09:58;9.32;;;6.60;;
20375;SDS011;10347;51.828;6.466;2022-11-15T02:12:27;9.02;;;5.82;;
20375;SDS011;10347;51.828;6.466;2022-11-15T02:14:53;8.65;;;6.65;;
20375;SDS011;10347;51.828;6.466;2022-11-15T02:17:26;8.85;;;6.35;;
20375;SDS011;10347;51.828;6.466;2022-11-15T02:26:18;8.38;;;6.70;;
20375;SDS011;10347;51.828;6.466;2022-11-15T02:37:14;10.10;;;7.57;;
20375;SDS011;10347;51.828;6.466;2022-11-15T02:42:23;9.18;;;6.28;;
20375;SDS011;10347;51.828;6.466;2022-11-15T02:45:13;9.38;;;6.45;;
20375;SDS011;10347;51.828;6.466;2022-11-15T02:47:44;8.63;;;6.65;;
20375;SDS011;10347;51.828;6.466;2022-11-15T02:50:13;8.30;;;6.65;;
20375;SDS011;10347;51.828;6.466;2022-11-15T02:52:44;9.90;;;7.22;;
20375;SDS011;10347;51.828;6.466;2022-11-15T02:57:52;7.82;;;6.30;;
20375;SDS011;10347;51.828;6.466;2022-11-15T03:00:21;14.00;;;7.53;;
20375;SDS011;10347;51.828;6.466;2022-11-15T03:08:45;8.68;;;6.32;;
20375;SDS011;10347;51.828;6.466;2022-11-15T03:11:20;8.57;;;6.63;;
20375;SDS011;10347;51.828;6.466;2022-11-15T03:14:02;9.75;;;6.20;;
20375;SDS011;10347;51.828;6.466;2022-11-15T03:16:59;8.57;;;6.57;;
20375;SDS011;10347;51.828;6.466;2022-11-15T03:19:37;9.82;;;6.53;;
20375;SDS011;10347;51.828;6.466;2022-11-15T03:22:13;8.55;;;6.28;;
20375;SDS011;10347;51.828;6.466;2022-11-15T03:24:42;8.07;;;6.85;;
20375;SDS011;10347;51.828;6.466;2022-11-15T03:27:11;10.55;;;6.57;;
20375;SDS011;10347;51.828;6.466;2022-11-15T03:29:39;8.18;;;6.30;;
20375;SDS011;10347;51.828;6.466;2022-11-15T03:32:16;8.95;;;5.80;;
20375;SDS011;10347;51.828;6.466;2022-11-15T03:34:52;8.40;;;6.32;;
20375;SDS011;10347;51.828;6.466;2022-11-15T03:37:26;7.00;;;5.82;;
20375;SDS011;10347;51.828;6.466;2022-11-15T03:40:15;7.18;;;5.93;;
20375;SDS011;10347;51.828;6.466;2022-11-15T03:42:43;8.00;;;6.35;;
20375;SDS011;10347;51.828;6.466;2022-11-15T03:45:57;8.50;;;6.38;;
20375;SDS011;10347;51.828;6.466;2022-11-15T03:48:25;8.60;;;6.30;;
20375;SDS011;10347;51.828;6.466;2022-11-15T03:50:55;7.20;;;5.97;;
20375;SDS011;10347;51.828;6.466;2022-11-15T03:53:21;10.90;;;6.30;;
20375;SDS011;10347;51.828;6.466;2022-11-15T03:55:47;7.68;;;5.60;;
20375;SDS011;10347;51.828;6.466;2022-11-15T03:58:12;7.28;;;5.97;;
20375;SDS011;10347;51.828;6.466;2022-11-15T04:00:38;8.93;;;6.20;;
20375;SDS011;10347;51.828;6.466;2022-11-15T04:03:03;7.93;;;6.07;;
20375;SDS011;10347;51.828;6.466;2022-11-15T04:05:29;9.70;;;6.30;;
20375;SDS011;10347;51.828;6.466;2022-11-15T04:07:54;10.05;;;5.70;;
20375;SDS011;10347;51.828;6.466;2022-11-15T04:10:20;8.80;;;6.30;;
20375;SDS011;10347;51.828;6.466;2022-11-15T04:12:46;9.13;;;6.85;;
20375;SDS011;10347;51.828;6.466;2022-11-15T04:15:20;8.82;;;6.22;;
20375;SDS011;10347;51.828;6.466;2022-11-15T04:17:51;7.35;;;5.78;;
20375;SDS011;10347;51.828;6.466;2022-11-15T04:20:20;7.82;;;6.25;;
20375;SDS011;10347;51.828;6.466;2022-11-15T04:23:11;9.20;;;6.15;;
20375;SDS011;10347;51.828;6.466;2022-11-15T04:25:58;9.68;;;6.65;;
20375;SDS011;10347;51.828;6.466;2022-11-15T04:28:25;8.48;;;5.80;;
20375;SDS011;10347;51.828;6.466;2022-11-15T04:30:51;6.50;;;5.05;;
20375;SDS011;10347;51.828;6.466;2022-11-15T04:33:17;9.68;;;6.13;;
20375;SDS011;10347;51.828;6.466;2022-11-15T04:35:42;8.50;;;5.65;;
20375;SDS011;10347;51.828;6.466;2022-11-15T04:38:09;7.03;;;5.35;;
20375;SDS011;10347;51.828;6.466;2022-11-15T04:40:36;7.65;;;5.82;;
20375;SDS011;10347;51.828;6.466;2022-11-15T04:43:02;6.75;;;6.05;;
20375;SDS011;10347;51.828;6.466;2022-11-15T04:45:28;7.45;;;6.15;;
20375;SDS011;10347;51.828;6.466;2022-11-15T04:47:54;7.20;;;5.53;;
20375;SDS011;10347;51.828;6.466;2022-11-15T04:50:20;8.90;;;5.68;;
20375;SDS011;10347;51.828;6.466;2022-11-15T04:52:52;7.68;;;5.55;;
20375;SDS011;10347;51.828;6.466;2022-11-15T04:55:18;6.88;;;5.88;;
20375;SDS011;10347;51.828;6.466;2022-11-15T04:57:44;7.18;;;5.97;;
20375;SDS011;10347;51.828;6.466;2022-11-15T05:00:11;6.30;;;5.15;;
20375;SDS011;10347;51.828;6.466;2022-11-15T05:02:39;8.07;;;5.68;;
20375;SDS011;10347;51.828;6.466;2022-11-15T05:05:24;7.55;;;5.47;;
20375;SDS011;10347;51.828;6.466;2022-11-15T05:07:49;9.45;;;5.78;;
20375;SDS011;10347;51.828;6.466;2022-11-15T05:10:15;8.23;;;5.30;;
20375;SDS011;10347;51.828;6.466;2022-11-15T05:12:41;8.35;;;5.45;;
20375;SDS011;10347;51.828;6.466;2022-11-15T05:15:07;5.63;;;5.05;;
20375;SDS011;10347;51.828;6.466;2022-11-15T05:17:33;5.78;;;5.13;;
20375;SDS011;10347;51.828;6.466;2022-11-15T05:19:59;8.48;;;5.72;;
20375;SDS011;10347;51.828;6.466;2022-11-15T05:22:24;6.95;;;5.60;;
20375;SDS011;10347;51.828;6.466;2022-11-15T05:24:50;8.82;;;5.65;;
20375;SDS011;10347;51.828;6.466;2022-11-15T05:27:16;8.93;;;6.18;;
20375;SDS011;10347;51.828;6.466;2022-11-15T05:29:41;8.55;;;5.95;;
20375;SDS011;10347;51.828;6.466;2022-11-15T05:32:07;6.57;;;5.53;;
20375;SDS011;10347;51.828;6.466;2022-11-15T05:34:34;8.32;;;6.00;;
20375;SDS011;10347;51.828;6.466;2022-11-15T05:37:00;6.93;;;5.72;;
20375;SDS011;10347;51.828;6.466;2022-11-15T05:39:25;6.85;;;5.70;;
20375;SDS011;10347;51.828;6.466;2022-11-15T05:41:54;7.15;;;5.68;;
20375;SDS011;10347;51.828;6.466;2022-11-15T05:44:25;9.10;;;6.35;;
20375;SDS011;10347;51.828;6.466;2022-11-15T05:46:51;7.05;;;6.03;;
20375;SDS011;10347;51.828;6.466;2022-11-15T05:49:19;8.02;;;6.32;;
20375;SDS011;10347;51.828;6.466;2022-11-15T05:51:48;8.00;;;6.90;;
20375;SDS011;10347;51.828;6.466;2022-11-15T05:54:16;7.20;;;5.55;;
20375;SDS011;10347;51.828;6.466;2022-11-15T05:56:42;6.45;;;5.63;;
20375;SDS011;10347;51.828;6.466;2022-11-15T05:59:08;6.85;;;5.72;;
20375;SDS011;10347;51.828;6.466;2022-11-15T06:01:35;8.38;;;6.30;;
20375;SDS011;10347;51.828;6.466;2022-11-15T06:04:01;6.45;;;5.85;;
20375;SDS011;10347;51.828;6.466;2022-11-15T06:06:27;9.15;;;6.05;;
20375;SDS011;10347;51.828;6.466;2022-11-15T06:08:53;6.47;;;5.50;;
20375;SDS011;10347;51.828;6.466;2022-11-15T06:11:19;7.03;;;5.97;;
20375;SDS011;10347;51.828;6.466;2022-11-15T06:13:45;7.43;;;5.78;;
20375;SDS011;10347;51.828;6.466;2022-11-15T06:16:10;7.18;;;5.88;;
20375;SDS011;10347;51.828;6.466;2022-11-15T06:18:36;7.57;;;6.50;;
20375;SDS011;10347;51.828;6.466;2022-11-15T06:21:02;10.25;;;7.20;;
20375;SDS011;10347;51.828;6.466;2022-11-15T06:23:28;10.13;;;6.45;;
20375;SDS011;10347;51.828;6.466;2022-11-15T06:25:57;7.55;;;5.80;;
20375;SDS011;10347;51.828;6.466;2022-11-15T06:28:23;6.80;;;5.63;;
20375;SDS011;10347;51.828;6.466;2022-11-15T06:30:49;8.00;;;5.85;;
20375;SDS011;10347;51.828;6.466;2022-11-15T06:33:15;9.40;;;6.13;;
20375;SDS011;10347;51.828;6.466;2022-11-15T06:35:40;7.55;;;6.13;;
20375;SDS011;10347;51.828;6.466;2022-11-15T06:38:07;7.43;;;5.40;;
20375;SDS011;10347;51.828;6.466;2022-11-15T06:40:35;7.70;;;5.53;;
20375;SDS011;10347;51.828;6.466;2022-11-15T06:43:02;7.72;;;5.40;;
20375;SDS011;10347;51.828;6.466;2022-11-15T06:45:28;5.85;;;5.32;;
20375;SDS011;10347;51.828;6.466;2022-11-15T06:47:54;6.25;;;5.32;;
20375;SDS011;10347;51.828;6.466;2022-11-15T06:50:20;9.55;;;6.25;;
20375;SDS011;10347;51.828;6.466;2022-11-15T06:52:46;8.35;;;6.15;;
20375;SDS011;10347;51.828;6.466;2022-11-15T06:55:11;6.63;;;5.25;;
20375;SDS011;10347;51.828;6.466;2022-11-15T06:57:37;7.32;;;5.70;;
20375;SDS011;10347;51.828;6.466;2022-11-15T07:00:15;7.13;;;5.35;;
20375;SDS011;10347;51.828;6.466;2022-11-15T07:02:43;7.10;;;5.28;;
20375;SDS011;10347;51.828;6.466;2022-11-15T07:05:08;5.63;;;4.68;;
20375;SDS011;10347;51.828;6.466;2022-11-15T07:07:34;6.03;;;4.80;;
20375;SDS011;10347;51.828;6.466;2022-11-15T07:09:59;7.90;;;5.25;;
20375;SDS011;10347;51.828;6.466;2022-11-15T07:12:25;6.15;;;5.22;;
20375;SDS011;10347;51.828;6.466;2022-11-15T07:14:50;8.52;;;5.82;;
20375;SDS011;10347;51.828;6.466;2022-11-15T07:17:16;5.63;;;5.07;;
20375;SDS011;10347;51.828;6.466;2022-11-15T07:19:42;6.28;;;5.07;;
20375;SDS011;10347;51.828;6.466;2022-11-15T07:22:07;7.35;;;5.53;;
20375;SDS011;10347;51.828;6.466;2022-11-15T07:24:33;6.85;;;5.07;;
20375;SDS011;10347;51.828;6.466;2022-11-15T07:26:58;8.35;;;5.68;;
20375;SDS011;10347;51.828;6.466;2022-11-15T07:29:24;5.75;;;5.07;;
20375;SDS011;10347;51.828;6.466;2022-11-15T07:31:49;6.60;;;5.25;;
20375;SDS011;10347;51.828;6.466;2022-11-15T07:34:15;6.05;;;5.10;;
20375;SDS011;10347;51.828;6.466;2022-11-15T07:36:41;7.28;;;5.00;;
20375;SDS011;10347;51.828;6.466;2022-11-15T07:39:06;7.43;;;5.28;;
20375;SDS011;10347;51.828;6.466;2022-11-15T07:41:32;7.13;;;5.22;;
20375;SDS011;10347;51.828;6.466;2022-11-15T07:43:58;6.40;;;4.97;;
20375;SDS011;10347;51.828;6.466;2022-11-15T07:46:23;5.53;;;4.80;;
20375;SDS011;10347;51.828;6.466;2022-11-15T07:48:49;4.43;;;4.03;;
20375;SDS011;10347;51.828;6.466;2022-11-15T07:51:15;5.70;;;4.80;;
20375;SDS011;10347;51.828;6.466;2022-11-15T07:53:41;4.68;;;4.18;;
20375;SDS011;10347;51.828;6.466;2022-11-15T07:56:08;6.00;;;4.65;;
20375;SDS011;10347;51.828;6.466;2022-11-15T07:58:34;5.85;;;4.82;;
20375;SDS011;10347;51.828;6.466;2022-11-15T08:01:04;6.28;;;4.82;;
20375;SDS011;10347;51.828;6.466;2022-11-15T08:03:30;4.80;;;4.35;;
20375;SDS011;10347;51.828;6.466;2022-11-15T08:05:56;8.02;;;4.10;;
20375;SDS011;10347;51.828;6.466;2022-11-15T08:08:22;4.90;;;4.38;;
20375;SDS011;10347;51.828;6.466;2022-11-15T08:10:47;6.20;;;4.90;;
20375;SDS011;10347;51.828;6.466;2022-11-15T08:13:13;6.18;;;4.35;;
20375;SDS011;10347;51.828;6.466;2022-11-15T08:15:39;5.03;;;3.97;;
20375;SDS011;10347;51.828;6.466;2022-11-15T08:18:06;5.25;;;4.38;;
20375;SDS011;10347;51.828;6.466;2022-11-15T08:20:36;5.05;;;4.50;;
20375;SDS011;10347;51.828;6.466;2022-11-15T08:23:03;6.47;;;4.60;;
20375;SDS011;10347;51.828;6.466;2022-11-15T08:25:30;4.80;;;4.38;;
20375;SDS011;10347;51.828;6.466;2022-11-15T08:27:58;6.50;;;4.35;;
20375;SDS011;10347;51.828;6.466;2022-11-15T08:30:25;8.52;;;4.35;;
20375;SDS011;10347;51.828;6.466;2022-11-15T08:32:52;4.40;;;4.00;;
20375;SDS011;10347;51.828;6.466;2022-11-15T08:35:19;4.80;;;4.20;;
20375;SDS011;10347;51.828;6.466;2022-11-15T08:37:45;4.80;;;4.30;;
20375;SDS011;10347;51.828;6.466;2022-11-15T08:40:11;4.43;;;4.03;;
20375;SDS011;10347;51.828;6.466;2022-11-15T08:42:37;4.45;;;3.60;;
20375;SDS011;10347;51.828;6.466;2022-11-15T08:45:02;4.30;;;3.70;;
20375;SDS011;10347;51.828;6.466;2022-11-15T08:47:28;4.07;;;3.65;;
20375;SDS011;10347;51.828;6.466;2022-11-15T08:49:54;5.75;;;3.97;;
20375;SDS011;10347;51.828;6.466;2022-11-15T08:52:20;3.13;;;2.92;;
20375;SDS011;10347;51.828;6.466;2022-11-15T08:54:46;5.65;;;3.38;;
20375;SDS011;10347;51.828;6.466;2022-11-15T08:57:12;4.18;;;3.75;;
20375;SDS011;10347;51.828;6.466;2022-11-15T08:59:37;3.47;;;3.17;;
20375;SDS011;10347;51.828;6.466;2022-11-15T09:02:03;6.13;;;3.47;;
20375;SDS011;10347;51.828;6.466;2022-11-15T09:04:29;3.28;;;3.05;;
20375;SDS011;10347;51.828;6.466;2022-11-15T09:06:55;3.58;;;2.97;;
20375;SDS011;10347;51.828;6.466;2022-11-15T09:09:21;3.35;;;2.70;;
20375;SDS011;10347;51.828;6.466;2022-11-15T09:11:46;3.85;;;2.78;;
20375;SDS011;10347;51.828;6.466;2022-11-15T09:14:12;5.00;;;3.10;;
20375;SDS011;10347;51.828;6.466;2022-11-15T09:16:38;2.95;;;2.50;;
20375;SDS011;10347;51.828;6.466;2022-11-15T09:19:04;4.38;;;2.90;;
20375;SDS011;10347;51.828;6.466;2022-11-15T09:21:30;3.70;;;2.55;;
20375;SDS011;10347;51.828;6.466;2022-11-15T09:23:55;2.70;;;2.40;;
20375;SDS011;10347;51.828;6.466;2022-11-15T09:26:21;2.88;;;2.67;;
20375;SDS011;10347;51.828;6.466;2022-11-15T09:28:47;2.65;;;2.30;;
20375;SDS011;10347;51.828;6.466;2022-11-15T09:31:13;3.13;;;2.55;;
20375;SDS011;10347;51.828;6.466;2022-11-15T09:33:38;3.75;;;2.25;;
20375;SDS011;10347;51.828;6.466;2022-11-15T09:36:05;3.33;;;2.50;;
20375;SDS011;10347;51.828;6.466;2022-11-15T09:38:32;3.05;;;2.58;;
20375;SDS011;10347;51.828;6.466;2022-11-15T09:46:24;2.88;;;2.58;;
20375;SDS011;10347;51.828;6.466;2022-11-15T09:48:53;3.08;;;2.42;;
20375;SDS011;10347;51.828;6.466;2022-11-15T09:56:27;6.63;;;2.20;;
20375;SDS011;10347;51.828;6.466;2022-11-15T10:04:22;2.17;;;1.90;;
20375;SDS011;10347;51.828;6.466;2022-11-15T10:07:00;1.45;;;1.35;;
20375;SDS011;10347;51.828;6.466;2022-11-15T10:09:31;1.70;;;1.60;;
20375;SDS011;10347;51.828;6.466;2022-11-15T10:12:07;1.52;;;1.48;;
20375;SDS011;10347;51.828;6.466;2022-11-15T10:14:34;2.33;;;1.60;;
20375;SDS011;10347;51.828;6.466;2022-11-15T10:19:41;1.45;;;1.35;;
20375;SDS011;10347;51.828;6.466;2022-11-15T10:22:30;1.63;;;1.52;;
20375;SDS011;10347;51.828;6.466;2022-11-15T10:25:42;1.50;;;1.40;;
20375;SDS011;10347;51.828;6.466;2022-11-15T10:27:43;2.17;;;1.70;;
20375;SDS011;10347;51.828;6.466;2022-11-15T10:30:13;1.23;;;1.20;;
20375;SDS011;10347;51.828;6.466;2022-11-15T10:32:41;3.20;;;1.60;;
20375;SDS011;10347;51.828;6.466;2022-11-15T10:37:43;1.60;;;1.50;;
20375;SDS011;10347;51.828;6.466;2022-11-15T10:40:19;2.13;;;1.38;;
20375;SDS011;10347;51.828;6.466;2022-11-15T10:43:03;2.80;;;1.20;;
20375;SDS011;10347;51.828;6.466;2022-11-15T10:45:31;1.30;;;1.30;;
20375;SDS011;10347;51.828;6.466;2022-11-15T10:50:48;3.30;;;1.20;;
20375;SDS011;10347;51.828;6.466;2022-11-15T10:53:20;1.27;;;1.10;;
20375;SDS011;10347;51.828;6.466;2022-11-15T10:55:49;1.00;;;1.00;;
20375;SDS011;10347;51.828;6.466;2022-11-15T11:03:38;1.52;;;1.10;;
20375;SDS011;10347;51.828;6.466;2022-11-15T11:06:06;3.20;;;1.30;;
20375;SDS011;10347;51.828;6.466;2022-11-15T11:08:35;3.97;;;1.20;;
20375;SDS011;10347;51.828;6.466;2022-11-15T11:11:01;1.85;;;1.10;;
20375;SDS011;10347;51.828;6.466;2022-11-15T11:27:08;1.42;;;1.33;;
20375;SDS011;10347;51.828;6.466;2022-11-15T11:30:06;3.75;;;1.20;;
20375;SDS011;10347;51.828;6.466;2022-11-15T11:44:31;2.15;;;1.67;;
20375;SDS011;10347;51.828;6.466;2022-11-15T11:47:07;1.30;;;1.30;;
20375;SDS011;10347;51.828;6.466;2022-11-15T11:49:52;1.40;;;1.30;;
20375;SDS011;10347;51.828;6.466;2022-11-15T11:52:31;1.60;;;1.50;;
20375;SDS011;10347;51.828;6.466;2022-11-15T11:55:05;2.20;;;1.60;;
20375;SDS011;10347;51.828;6.466;2022-11-15T11:57:48;1.50;;;1.40;;
20375;SDS011;10347;51.828;6.466;2022-11-15T12:00:38;1.38;;;1.27;;
20375;SDS011;10347;51.828;6.466;2022-11-15T12:05:57;3.08;;;1.50;;
20375;SDS011;10347;51.828;6.466;2022-11-15T12:11:08;1.85;;;1.60;;
20375;SDS011;10347;51.828;6.466;2022-11-15T12:13:39;3.17;;;1.60;;
20375;SDS011;10347;51.828;6.466;2022-11-15T12:18:52;2.30;;;1.70;;
20375;SDS011;10347;51.828;6.466;2022-11-15T12:24:06;1.60;;;1.50;;
20375;SDS011;10347;51.828;6.466;2022-11-15T12:26:50;1.83;;;1.73;;
20375;SDS011;10347;51.828;6.466;2022-11-15T12:29:37;1.52;;;1.30;;
20375;SDS011;10347;51.828;6.466;2022-11-15T12:32:14;1.30;;;1.20;;
20375;SDS011;10347;51.828;6.466;2022-11-15T12:34:43;2.70;;;1.40;;
20375;SDS011;10347;51.828;6.466;2022-11-15T12:45:32;1.60;;;1.50;;
20375;SDS011;10347;51.828;6.466;2022-11-15T12:58:40;1.20;;;1.10;;
20375;SDS011;10347;51.828;6.466;2022-11-15T13:04:13;2.28;;;1.42;;
20375;SDS011;10347;51.828;6.466;2022-11-15T13:12:00;2.88;;;1.58;;
20375;SDS011;10347;51.828;6.466;2022-11-15T13:19:47;2.78;;;1.42;;
20375;SDS011;10347;51.828;6.466;2022-11-15T13:22:38;1.88;;;1.30;;
20375;SDS011;10347;51.828;6.466;2022-11-15T13:30:37;1.40;;;1.30;;
20375;SDS011;10347;51.828;6.466;2022-11-15T13:35:50;3.35;;;1.35;;
20375;SDS011;10347;51.828;6.466;2022-11-15T13:38:25;3.30;;;1.60;;
20375;SDS011;10347;51.828;6.466;2022-11-15T13:40:52;2.20;;;1.40;;
20375;SDS011;10347;51.828;6.466;2022-11-15T13:48:37;1.45;;;1.35;;
20375;SDS011;10347;51.828;6.466;2022-11-15T13:51:04;2.67;;;1.42;;
20375;SDS011;10347;51.828;6.466;2022-11-15T13:53:40;1.35;;;1.23;;
20375;SDS011;10347;51.828;6.466;2022-11-15T13:56:08;3.63;;;1.30;;
20375;SDS011;10347;51.828;6.466;2022-11-15T13:58:36;4.03;;;1.65;;
20375;SDS011;10347;51.828;6.466;2022-11-15T14:01:04;2.55;;;1.33;;
20375;SDS011;10347;51.828;6.466;2022-11-15T14:03:31;1.83;;;1.33;;
20375;SDS011;10347;51.828;6.466;2022-11-15T14:06:42;1.73;;;1.30;;
20375;SDS011;10347;51.828;6.466;2022-11-15T14:11:36;3.35;;;1.30;;
20375;SDS011;10347;51.828;6.466;2022-11-15T14:16:38;1.77;;;1.33;;
20375;SDS011;10347;51.828;6.466;2022-11-15T14:19:10;2.05;;;1.60;;
20375;SDS011;10347;51.828;6.466;2022-11-15T14:22:07;3.45;;;1.70;;
20375;SDS011;10347;51.828;6.466;2022-11-15T14:24:33;4.30;;;1.60;;
20375;SDS011;10347;51.828;6.466;2022-11-15T14:27:19;3.17;;;1.50;;
20375;SDS011;10347;51.828;6.466;2022-11-15T14:29:45;2.13;;;1.60;;
20375;SDS011;10347;51.828;6.466;2022-11-15T14:32:12;6.20;;;1.85;;
20375;SDS011;10347;51.828;6.466;2022-11-15T14:34:43;3.45;;;1.50;;
20375;SDS011;10347;51.828;6.466;2022-11-15T14:37:18;3.25;;;1.33;;
20375;SDS011;10347;51.828;6.466;2022-11-15T14:39:44;2.75;;;1.48;;
20375;SDS011;10347;51.828;6.466;2022-11-15T14:42:09;3.55;;;1.40;;
20375;SDS011;10347;51.828;6.466;2022-11-15T14:44:35;2.70;;;1.30;;
20375;SDS011;10347;51.828;6.466;2022-11-15T14:47:00;5.57;;;1.55;;
20375;SDS011;10347;51.828;6.466;2022-11-15T14:49:26;3.35;;;1.58;;
20375;SDS011;10347;51.828;6.466;2022-11-15T14:51:51;1.42;;;1.33;;
20375;SDS011;10347;51.828;6.466;2022-11-15T14:54:17;3.05;;;1.35;;
20375;SDS011;10347;51.828;6.466;2022-11-15T14:56:42;4.22;;;1.95;;
20375;SDS011;10347;51.828;6.466;2022-11-15T14:59:08;3.00;;;1.40;;
20375;SDS011;10347;51.828;6.466;2022-11-15T15:01:34;1.63;;;1.33;;
20375;SDS011;10347;51.828;6.466;2022-11-15T15:03:59;4.50;;;1.33;;
20375;SDS011;10347;51.828;6.466;2022-11-15T15:06:25;1.35;;;1.23;;
20375;SDS011;10347;51.828;6.466;2022-11-15T15:08:51;8.13;;;1.48;;
20375;SDS011;10347;51.828;6.466;2022-11-15T15:11:19;2.75;;;1.10;;
20375;SDS011;10347;51.828;6.466;2022-11-15T15:13:47;2.75;;;1.20;;
20375;SDS011;10347;51.828;6.466;2022-11-15T15:16:12;1.40;;;1.25;;
20375;SDS011;10347;51.828;6.466;2022-11-15T15:18:38;2.25;;;1.33;;
20375;SDS011;10347;51.828;6.466;2022-11-15T15:21:04;2.90;;;1.17;;
20375;SDS011;10347;51.828;6.466;2022-11-15T15:23:49;2.17;;;1.30;;
20375;SDS011;10347;51.828;6.466;2022-11-15T15:26:15;1.25;;;1.25;;
20375;SDS011;10347;51.828;6.466;2022-11-15T15:28:41;1.20;;;1.10;;
20375;SDS011;10347;51.828;6.466;2022-11-15T15:31:07;1.10;;;1.00;;
20375;SDS011;10347;51.828;6.466;2022-11-15T15:33:36;1.20;;;1.08;;
20375;SDS011;10347;51.828;6.466;2022-11-15T15:36:03;2.53;;;1.40;;
20375;SDS011;10347;51.828;6.466;2022-11-15T15:38:28;2.53;;;1.33;;
20375;SDS011;10347;51.828;6.466;2022-11-15T15:40:54;1.33;;;1.13;;
20375;SDS011;10347;51.828;6.466;2022-11-15T15:43:20;1.05;;;1.02;;
20375;SDS011;10347;51.828;6.466;2022-11-15T15:45:45;2.08;;;1.40;;
20375;SDS011;10347;51.828;6.466;2022-11-15T15:48:15;2.60;;;1.05;;
20375;SDS011;10347;51.828;6.466;2022-11-15T15:50:41;1.50;;;1.20;;
20375;SDS011;10347;51.828;6.466;2022-11-15T15:53:08;2.80;;;1.17;;
20375;SDS011;10347;51.828;6.466;2022-11-15T15:55:36;1.33;;;1.20;;
20375;SDS011;10347;51.828;6.466;2022-11-15T15:58:02;2.85;;;1.20;;
20375;SDS011;10347;51.828;6.466;2022-11-15T16:00:28;1.77;;;1.10;;
20375;SDS011;10347;51.828;6.466;2022-11-15T16:02:57;2.55;;;1.10;;
20375;SDS011;10347;51.828;6.466;2022-11-15T16:05:23;1.10;;;1.00;;
20375;SDS011;10347;51.828;6.466;2022-11-15T16:07:48;2.00;;;1.10;;
20375;SDS011;10347;51.828;6.466;2022-11-15T16:10:22;3.63;;;1.20;;
20375;SDS011;10347;51.828;6.466;2022-11-15T16:12:53;2.63;;;1.40;;
20375;SDS011;10347;51.828;6.466;2022-11-15T16:15:20;2.53;;;1.40;;
20375;SDS011;10347;51.828;6.466;2022-11-15T16:17:48;2.13;;;1.30;;
20375;SDS011;10347;51.828;6.466;2022-11-15T16:20:21;1.60;;;1.50;;
20375;SDS011;10347;51.828;6.466;2022-11-15T16:23:03;2.13;;;1.23;;
20375;SDS011;10347;51.828;6.466;2022-11-15T16:25:31;2.45;;;1.25;;
20375;SDS011;10347;51.828;6.466;2022-11-15T16:27:59;1.58;;;1.30;;
20375;SDS011;10347;51.828;6.466;2022-11-15T16:30:25;2.53;;;1.40;;
20375;SDS011;10347;51.828;6.466;2022-11-15T16:32:50;3.33;;;1.67;;
20375;SDS011;10347;51.828;6.466;2022-11-15T16:35:16;2.33;;;1.65;;
20375;SDS011;10347;51.828;6.466;2022-11-15T16:37:42;2.20;;;1.88;;
20375;SDS011;10347;51.828;6.466;2022-11-15T16:40:16;2.08;;;1.60;;
20375;SDS011;10347;51.828;6.466;2022-11-15T16:42:51;2.50;;;1.50;;
20375;SDS011;10347;51.828;6.466;2022-11-15T16:45:16;1.75;;;1.60;;
20375;SDS011;10347;51.828;6.466;2022-11-15T16:47:42;4.68;;;1.95;;
20375;SDS011;10347;51.828;6.466;2022-11-15T16:50:14;3.92;;;1.88;;
20375;SDS011;10347;51.828;6.466;2022-11-15T16:52:48;2.80;;;1.50;;
20375;SDS011;10347;51.828;6.466;2022-11-15T16:55:14;3.55;;;1.73;;
20375;SDS011;10347;51.828;6.466;2022-11-15T16:57:40;2.05;;;1.50;;
20375;SDS011;10347;51.828;6.466;2022-11-15T17:00:07;3.08;;;1.65;;
20375;SDS011;10347;51.828;6.466;2022-11-15T17:02:35;1.85;;;1.73;;
20375;SDS011;10347;51.828;6.466;2022-11-15T17:05:01;2.53;;;1.75;;
20375;SDS011;10347;51.828;6.466;2022-11-15T17:07:26;3.97;;;1.70;;
20375;SDS011;10347;51.828;6.466;2022-11-15T17:09:52;1.65;;;1.55;;
20375;SDS011;10347;51.828;6.466;2022-11-15T17:12:17;2.67;;;1.67;;
20375;SDS011;10347;51.828;6.466;2022-11-15T17:14:43;2.65;;;1.92;;
20375;SDS011;10347;51.828;6.466;2022-11-15T17:17:10;3.15;;;1.75;;
20375;SDS011;10347;51.828;6.466;2022-11-15T17:19:36;3.88;;;2.50;;